sensor_id;sensor_type;location;lat;lon;timestamp;pressure;altitude;pressure_sealevel;temperature;humidity
11114;BME280;5610;52.154;9.198;2023-02-11T00:02:01;102311.31;;;7.23;100.00
11114;BME280;5610;52.154;9.198;2023-02-11T00:04:49;102301.72;;;7.18;100.00
11114;BME280;5610;52.154;9.198;2023-02-11T00:07:35;102303.47;;;7.19;100.00
11114;BME280;5610;52.154;9.198;2023-02-11T00:10:20;102304.28;;;7.22;100.00
11114;BME280;5610;52.154;9.198;2023-02-11T00:13:05;102307.09;;;7.14;100.00
11114;BME280;5610;52.154;9.198;2023-02-11T00:15:51;102301.66;;;7.21;100.00
11114;BME280;5610;52.154;9.198;2023-02-11T00:18:37;102318.53;;;7.16;100.00
11114;BME280;5610;52.154;9.198;2023-02-11T00:21:24;102314.81;;;7.25;100.00
11114;BME280;5610;52.154;9.198;2023-02-11T00:24:10;102331.72;;;7.21;100.00
11114;BME280;5610;52.154;9.198;2023-02-11T00:26:55;102306.38;;;7.06;100.00
11114;BME280;5610;52.154;9.198;2023-02-11T00:29:41;102297.28;;;7.18;100.00
11114;BME280;5610;52.154;9.198;2023-02-11T00:32:26;102294.56;;;7.23;100.00
11114;BME280;5610;52.154;9.198;2023-02-11T00:35:11;102302.47;;;7.24;100.00
11114;BME280;5610;52.154;9.198;2023-02-11T00:37:58;102312.53;;;7.08;100.00
11114;BME280;5610;52.154;9.198;2023-02-11T00:40:43;102306.28;;;7.11;100.00
11114;BME280;5610;52.154;9.198;2023-02-11T00:43:29;102318.44;;;7.21;100.00
11114;BME280;5610;52.154;9.198;2023-02-11T00:46:15;102307.88;;;7.18;100.00
11114;BME280;5610;52.154;9.198;2023-02-11T00:49:00;102312.47;;;7.10;100.00
11114;BME280;5610;52.154;9.198;2023-02-11T00:51:46;102304.47;;;7.13;100.00
11114;BME280;5610;52.154;9.198;2023-02-11T00:54:32;102302.59;;;7.18;100.00
11114;BME280;5610;52.154;9.198;2023-02-11T00:57:18;102297.13;;;7.27;100.00
11114;BME280;5610;52.154;9.198;2023-02-11T01:00:05;102302.78;;;7.09;100.00
11114;BME280;5610;52.154;9.198;2023-02-11T01:02:50;102302.59;;;7.18;100.00
11114;BME280;5610;52.154;9.198;2023-02-11T01:05:36;102324.06;;;7.04;100.00
11114;BME280;5610;52.154;9.198;2023-02-11T01:08:21;102342.63;;;7.06;100.00
11114;BME280;5610;52.154;9.198;2023-02-11T01:11:13;102343.41;;;7.09;100.00
11114;BME280;5610;52.154;9.198;2023-02-11T01:13:58;102349.47;;;7.16;100.00
11114;BME280;5610;52.154;9.198;2023-02-11T01:16:44;102344.25;;;7.13;100.00
11114;BME280;5610;52.154;9.198;2023-02-11T01:19:30;102329.25;;;7.12;100.00
11114;BME280;5610;52.154;9.198;2023-02-11T01:22:16;102320.31;;;7.16;100.00
11114;BME280;5610;52.154;9.198;2023-02-11T01:25:01;102319.44;;;7.15;100.00
11114;BME280;5610;52.154;9.198;2023-02-11T01:27:47;102320.22;;;7.21;100.00
11114;BME280;5610;52.154;9.198;2023-02-11T01:30:33;102316.59;;;7.26;100.00
11114;BME280;5610;52.154;9.198;2023-02-11T01:33:18;102298.06;;;7.23;100.00
11114;BME280;5610;52.154;9.198;2023-02-11T01:36:05;102307.59;;;7.32;100.00
11114;BME280;5610;52.154;9.198;2023-02-11T01:38:51;102303.16;;;7.34;100.00
11114;BME280;5610;52.154;9.198;2023-02-11T01:41:38;102311.28;;;7.26;100.00
11114;BME280;5610;52.154;9.198;2023-02-11T01:44:27;102304.19;;;7.27;100.00
11114;BME280;5610;52.154;9.198;2023-02-11T01:47:13;102306.66;;;7.36;100.00
11114;BME280;5610;52.154;9.198;2023-02-11T01:50:00;102302.13;;;7.41;100.00
11114;BME280;5610;52.154;9.198;2023-02-11T01:52:47;102291.59;;;7.36;100.00
11114;BME280;5610;52.154;9.198;2023-02-11T01:55:33;102287.56;;;7.19;100.00
11114;BME280;5610;52.154;9.198;2023-02-11T01:58:37;102282.13;;;7.26;100.00
11114;BME280;5610;52.154;9.198;2023-02-11T02:01:28;102286.25;;;7.38;100.00
11114;BME280;5610;52.154;9.198;2023-02-11T02:04:16;102289.13;;;7.29;100.00
11114;BME280;5610;52.154;9.198;2023-02-11T02:07:05;102284.69;;;7.29;100.00
11114;BME280;5610;52.154;9.198;2023-02-11T02:09:59;102286.47;;;7.29;100.00
11114;BME280;5610;52.154;9.198;2023-02-11T02:12:47;102273.88;;;7.38;100.00
11114;BME280;5610;52.154;9.198;2023-02-11T02:15:37;102259.03;;;7.30;100.00
11114;BME280;5610;52.154;9.198;2023-02-11T02:18:34;102249.06;;;7.41;100.00
11114;BME280;5610;52.154;9.198;2023-02-11T02:21:53;102257.78;;;7.48;100.00
11114;BME280;5610;52.154;9.198;2023-02-11T02:24:58;102249.06;;;7.41;100.00
11114;BME280;5610;52.154;9.198;2023-02-11T02:27:49;102241.69;;;7.54;100.00
11114;BME280;5610;52.154;9.198;2023-02-11T02:31:03;102232.31;;;7.39;100.00
11114;BME280;5610;52.154;9.198;2023-02-11T02:33:59;102237.78;;;7.31;100.00
11114;BME280;5610;52.154;9.198;2023-02-11T02:36:51;102234.06;;;7.40;100.00
11114;BME280;5610;52.154;9.198;2023-02-11T02:39:38;102242.16;;;7.34;100.00
11114;BME280;5610;52.154;9.198;2023-02-11T02:42:23;102242.31;;;7.28;100.00
11114;BME280;5610;52.154;9.198;2023-02-11T02:45:10;102241.47;;;7.24;100.00
11114;BME280;5610;52.154;9.198;2023-02-11T02:47:58;102231.88;;;7.19;100.00
11114;BME280;5610;52.154;9.198;2023-02-11T02:50:45;102238.16;;;7.14;100.00
11114;BME280;5610;52.154;9.198;2023-02-11T02:53:40;102240.88;;;7.13;100.00
11114;BME280;5610;52.154;9.198;2023-02-11T02:56:38;102228.25;;;7.23;100.00
11114;BME280;5610;52.154;9.198;2023-02-11T02:59:41;102231.88;;;7.20;100.00
11114;BME280;5610;52.154;9.198;2023-02-11T03:02:32;102235.44;;;7.19;100.00
11114;BME280;5610;52.154;9.198;2023-02-11T03:05:25;102232.91;;;7.11;100.00
11114;BME280;5610;52.154;9.198;2023-02-11T03:08:17;102231.88;;;7.19;100.00
11114;BME280;5610;52.154;9.198;2023-02-11T03:11:05;102237.50;;;7.05;100.00
11114;BME280;5610;52.154;9.198;2023-02-11T03:13:52;102226.34;;;6.89;100.00
11114;BME280;5610;52.154;9.198;2023-02-11T03:16:38;102225.34;;;6.95;100.00
11114;BME280;5610;52.154;9.198;2023-02-11T03:19:27;102213.75;;;7.00;100.00
11114;BME280;5610;52.154;9.198;2023-02-11T03:22:16;102213.00;;;6.94;100.00
11114;BME280;5610;52.154;9.198;2023-02-11T03:25:04;102204.13;;;6.95;100.00
11114;BME280;5610;52.154;9.198;2023-02-11T03:27:52;102215.56;;;6.98;100.00
11114;BME280;5610;52.154;9.198;2023-02-11T03:30:42;102213.13;;;6.87;100.00
11114;BME280;5610;52.154;9.198;2023-02-11T03:33:34;102210.63;;;6.80;100.00
11114;BME280;5610;52.154;9.198;2023-02-11T03:36:25;102198.34;;;6.76;100.00
11114;BME280;5610;52.154;9.198;2023-02-11T03:39:18;102182.44;;;6.77;100.00
11114;BME280;5610;52.154;9.198;2023-02-11T03:42:08;102180.03;;;6.65;100.00
11114;BME280;5610;52.154;9.198;2023-02-11T03:44:58;102179.09;;;6.68;100.00
11114;BME280;5610;52.154;9.198;2023-02-11T03:47:49;102175.53;;;6.69;100.00
11114;BME280;5610;52.154;9.198;2023-02-11T03:50:36;102190.63;;;6.65;100.00
11114;BME280;5610;52.154;9.198;2023-02-11T03:53:22;102193.31;;;6.64;100.00
11114;BME280;5610;52.154;9.198;2023-02-11T03:56:11;102188.00;;;6.65;100.00
11114;BME280;5610;52.154;9.198;2023-02-11T03:59:00;102178.22;;;6.67;100.00
11114;BME280;5610;52.154;9.198;2023-02-11T04:01:45;102185.25;;;6.68;100.00
11114;BME280;5610;52.154;9.198;2023-02-11T04:04:30;102183.66;;;6.61;100.00
11114;BME280;5610;52.154;9.198;2023-02-11T04:07:16;102179.22;;;6.61;100.00
11114;BME280;5610;52.154;9.198;2023-02-11T04:10:01;102187.31;;;6.54;100.00
11114;BME280;5610;52.154;9.198;2023-02-11T04:12:47;102183.84;;;6.52;100.00
11114;BME280;5610;52.154;9.198;2023-02-11T04:15:33;102184.56;;;6.60;100.00
11114;BME280;5610;52.154;9.198;2023-02-11T04:18:18;102175.91;;;6.52;100.00
11114;BME280;5610;52.154;9.198;2023-02-11T04:21:04;102191.59;;;6.61;100.00
11114;BME280;5610;52.154;9.198;2023-02-11T04:23:49;102182.75;;;6.62;100.00
11114;BME280;5610;52.154;9.198;2023-02-11T04:26:35;102197.78;;;6.60;100.00
11114;BME280;5610;52.154;9.198;2023-02-11T04:29:20;102188.09;;;6.59;100.00
11114;BME280;5610;52.154;9.198;2023-02-11T04:32:08;102198.50;;;6.68;100.00
11114;BME280;5610;52.154;9.198;2023-02-11T04:34:53;102200.38;;;6.65;100.00
11114;BME280;5610;52.154;9.198;2023-02-11T04:37:38;102199.53;;;6.63;100.00
11114;BME280;5610;52.154;9.198;2023-02-11T04:40:24;102204.78;;;6.64;100.00
11114;BME280;5610;52.154;9.198;2023-02-11T04:43:09;102211.97;;;6.57;100.00
11114;BME280;5610;52.154;9.198;2023-02-11T04:45:56;102200.41;;;6.63;100.00
11114;BME280;5610;52.154;9.198;2023-02-11T04:48:42;102189.59;;;6.72;100.00
11114;BME280;5610;52.154;9.198;2023-02-11T04:51:28;102180.94;;;6.64;100.00
11114;BME280;5610;52.154;9.198;2023-02-11T04:54:13;102180.75;;;6.73;100.00
11114;BME280;5610;52.154;9.198;2023-02-11T04:56:58;102176.47;;;6.66;100.00
11114;BME280;5610;52.154;9.198;2023-02-11T04:59:44;102178.09;;;6.73;100.00
11114;BME280;5610;52.154;9.198;2023-02-11T05:02:29;102175.50;;;6.72;100.00
11114;BME280;5610;52.154;9.198;2023-02-11T05:05:16;102177.16;;;6.76;100.00
11114;BME280;5610;52.154;9.198;2023-02-11T05:08:01;102180.72;;;6.75;100.00
11114;BME280;5610;52.154;9.198;2023-02-11T05:10:47;102173.75;;;6.71;100.00
11114;BME280;5610;52.154;9.198;2023-02-11T05:13:32;102165.81;;;6.71;100.00
11114;BME280;5610;52.154;9.198;2023-02-11T05:16:18;102163.94;;;6.74;100.00
11114;BME280;5610;52.154;9.198;2023-02-11T05:19:03;102155.81;;;6.82;100.00
11114;BME280;5610;52.154;9.198;2023-02-11T05:21:50;102146.22;;;6.76;100.00
11114;BME280;5610;52.154;9.198;2023-02-11T05:24:36;102150.66;;;6.76;100.00
11114;BME280;5610;52.154;9.198;2023-02-11T05:27:21;102146.97;;;6.83;100.00
11114;BME280;5610;52.154;9.198;2023-02-11T05:30:09;102159.28;;;6.85;100.00
11114;BME280;5610;52.154;9.198;2023-02-11T05:32:54;102151.31;;;6.87;100.00
11114;BME280;5610;52.154;9.198;2023-02-11T05:35:40;102153.97;;;6.87;100.00
11114;BME280;5610;52.154;9.198;2023-02-11T05:38:26;102160.03;;;6.92;100.00
11114;BME280;5610;52.154;9.198;2023-02-11T05:41:12;102167.00;;;6.96;100.00
11114;BME280;5610;52.154;9.198;2023-02-11T05:43:57;102165.34;;;6.91;100.00
11114;BME280;5610;52.154;9.198;2023-02-11T05:46:42;102165.03;;;7.04;100.00
11114;BME280;5610;52.154;9.198;2023-02-11T05:49:28;102163.34;;;7.02;100.00
11114;BME280;5610;52.154;9.198;2023-02-11T05:52:13;102158.88;;;7.04;100.00
11114;BME280;5610;52.154;9.198;2023-02-11T05:55:00;102161.44;;;7.08;100.00
11114;BME280;5610;52.154;9.198;2023-02-11T05:57:45;102166.81;;;7.04;100.00
11114;BME280;5610;52.154;9.198;2023-02-11T06:00:31;102175.50;;;7.12;100.00
11114;BME280;5610;52.154;9.198;2023-02-11T06:03:16;102174.72;;;7.07;100.00
11114;BME280;5610;52.154;9.198;2023-02-11T06:06:02;102176.38;;;7.11;100.00
11114;BME280;5610;52.154;9.198;2023-02-11T06:08:48;102164.13;;;7.07;100.00
11114;BME280;5610;52.154;9.198;2023-02-11T06:11:35;102168.44;;;7.11;100.00
11114;BME280;5610;52.154;9.198;2023-02-11T06:14:20;102172.84;;;7.10;100.00
11114;BME280;5610;52.154;9.198;2023-02-11T06:17:05;102179.13;;;7.08;100.00
11114;BME280;5610;52.154;9.198;2023-02-11T06:19:51;102178.91;;;7.17;100.00
11114;BME280;5610;52.154;9.198;2023-02-11T06:22:36;102171.91;;;7.14;100.00
11114;BME280;5610;52.154;9.198;2023-02-11T06:25:22;102167.38;;;7.18;100.00
11114;BME280;5610;52.154;9.198;2023-02-11T06:28:08;102169.78;;;7.29;100.00
11114;BME280;5610;52.154;9.198;2023-02-11T06:30:54;102171.63;;;7.25;100.00
11114;BME280;5610;52.154;9.198;2023-02-11T06:33:39;102177.97;;;7.18;100.00
11114;BME280;5610;52.154;9.198;2023-02-11T06:36:25;102182.47;;;7.16;100.00
11114;BME280;5610;52.154;9.198;2023-02-11T06:39:11;102191.97;;;7.26;100.00
11114;BME280;5610;52.154;9.198;2023-02-11T06:41:56;102183.44;;;7.12;100.00
11114;BME280;5610;52.154;9.198;2023-02-11T06:44:43;102187.53;;;7.25;100.00
11114;BME280;5610;52.154;9.198;2023-02-11T06:47:28;102180.50;;;7.24;100.00
11114;BME280;5610;52.154;9.198;2023-02-11T06:50:14;102189.19;;;7.31;100.00
11114;BME280;5610;52.154;9.198;2023-02-11T06:53:00;102192.66;;;7.34;100.00
11114;BME280;5610;52.154;9.198;2023-02-11T06:55:45;102196.72;;;7.12;100.00
11114;BME280;5610;52.154;9.198;2023-02-11T06:58:31;102191.41;;;7.12;100.00
11114;BME280;5610;52.154;9.198;2023-02-11T07:01:17;102190.06;;;7.31;100.00
11114;BME280;5610;52.154;9.198;2023-02-11T07:04:03;102192.09;;;7.19;100.00
11114;BME280;5610;52.154;9.198;2023-02-11T07:06:48;102191.56;;;7.43;100.00
11114;BME280;5610;52.154;9.198;2023-02-11T07:09:33;102202.31;;;7.37;100.00
11114;BME280;5610;52.154;9.198;2023-02-11T07:12:19;102203.22;;;7.36;100.00
11114;BME280;5610;52.154;9.198;2023-02-11T07:15:05;102211.22;;;7.34;100.00
11114;BME280;5610;52.154;9.198;2023-02-11T07:17:51;102207.56;;;7.38;100.00
11114;BME280;5610;52.154;9.198;2023-02-11T07:20:37;102204.69;;;7.49;100.00
11114;BME280;5610;52.154;9.198;2023-02-11T07:23:22;102217.16;;;7.44;100.00
11114;BME280;5610;52.154;9.198;2023-02-11T07:26:10;102216.25;;;7.45;100.00
11114;BME280;5610;52.154;9.198;2023-02-11T07:28:56;102229.31;;;7.54;100.00
11114;BME280;5610;52.154;9.198;2023-02-11T07:31:41;102214.28;;;7.55;100.00
11114;BME280;5610;52.154;9.198;2023-02-11T07:34:28;102221.84;;;7.33;100.00
11114;BME280;5610;52.154;9.198;2023-02-11T07:37:13;102228.47;;;7.52;100.00
11114;BME280;5610;52.154;9.198;2023-02-11T07:39:58;102219.34;;;7.25;100.00
11114;BME280;5610;52.154;9.198;2023-02-11T07:42:43;102213.56;;;7.47;100.00
11114;BME280;5610;52.154;9.198;2023-02-11T07:45:29;102215.47;;;7.41;100.00
11114;BME280;5610;52.154;9.198;2023-02-11T07:48:14;102217.13;;;7.46;100.00
11114;BME280;5610;52.154;9.198;2023-02-11T07:51:06;102217.13;;;7.47;100.00
11114;BME280;5610;52.154;9.198;2023-02-11T07:53:52;102207.09;;;7.58;100.00
11114;BME280;5610;52.154;9.198;2023-02-11T07:56:38;102224.03;;;7.54;100.00
11114;BME280;5610;52.154;9.198;2023-02-11T07:59:24;102226.78;;;7.50;100.00
11114;BME280;5610;52.154;9.198;2023-02-11T08:02:10;102222.16;;;7.58;100.00
11114;BME280;5610;52.154;9.198;2023-02-11T08:04:55;102224.72;;;7.61;100.00
11114;BME280;5610;52.154;9.198;2023-02-11T08:07:41;102222.78;;;7.67;100.00
11114;BME280;5610;52.154;9.198;2023-02-11T08:10:27;102235.97;;;7.72;100.00
11114;BME280;5610;52.154;9.198;2023-02-11T08:13:12;102236.28;;;7.58;100.00
11114;BME280;5610;52.154;9.198;2023-02-11T08:15:57;102235.19;;;7.67;100.00
11114;BME280;5610;52.154;9.198;2023-02-11T08:18:43;102248.53;;;7.64;100.00
11114;BME280;5610;52.154;9.198;2023-02-11T08:21:28;102269.53;;;7.73;100.00
11114;BME280;5610;52.154;9.198;2023-02-11T08:24:15;102248.31;;;7.73;100.00
11114;BME280;5610;52.154;9.198;2023-02-11T08:27:00;102248.81;;;7.89;100.00
11114;BME280;5610;52.154;9.198;2023-02-11T08:29:46;102251.19;;;7.99;100.00
11114;BME280;5610;52.154;9.198;2023-02-11T08:32:33;102258.34;;;7.96;100.00
11114;BME280;5610;52.154;9.198;2023-02-11T08:35:18;102255.44;;;8.07;100.00
11114;BME280;5610;52.154;9.198;2023-02-11T08:38:03;102258.06;;;8.08;100.00
11114;BME280;5610;52.154;9.198;2023-02-11T08:40:50;102270.31;;;8.14;100.00
11114;BME280;5610;52.154;9.198;2023-02-11T08:43:36;102258.38;;;8.30;100.00
11114;BME280;5610;52.154;9.198;2023-02-11T08:46:24;102250.44;;;8.29;100.00
11114;BME280;5610;52.154;9.198;2023-02-11T08:49:10;102245.78;;;8.40;100.00
11114;BME280;5610;52.154;9.198;2023-02-11T08:51:55;102244.59;;;8.50;100.00
11114;BME280;5610;52.154;9.198;2023-02-11T08:54:45;102248.59;;;8.32;100.00
11114;BME280;5610;52.154;9.198;2023-02-11T08:57:31;102255.97;;;8.55;100.00
11114;BME280;5610;52.154;9.198;2023-02-11T09:00:17;102258.59;;;8.57;100.00
11114;BME280;5610;52.154;9.198;2023-02-11T09:03:03;102264.06;;;8.50;100.00
11114;BME280;5610;52.154;9.198;2023-02-11T09:05:49;102273.13;;;8.76;100.00
11114;BME280;5610;52.154;9.198;2023-02-11T09:08:38;102265.84;;;8.50;100.00
11114;BME280;5610;52.154;9.198;2023-02-11T09:11:26;102272.19;;;8.44;100.00
11114;BME280;5610;52.154;9.198;2023-02-11T09:14:18;102281.69;;;8.86;100.00
11114;BME280;5610;52.154;9.198;2023-02-11T09:17:04;102282.31;;;8.95;100.00
11114;BME280;5610;52.154;9.198;2023-02-11T09:19:49;102277.78;;;8.99;100.00
11114;BME280;5610;52.154;9.198;2023-02-11T09:22:35;102281.06;;;9.07;100.00
11114;BME280;5610;52.154;9.198;2023-02-11T09:25:20;102290.13;;;9.00;100.00
11114;BME280;5610;52.154;9.198;2023-02-11T09:28:06;102287.47;;;9.00;100.00
11114;BME280;5610;52.154;9.198;2023-02-11T09:30:53;102289.53;;;8.90;100.00
11114;BME280;5610;52.154;9.198;2023-02-11T09:33:39;102284.13;;;8.93;100.00
11114;BME280;5610;52.154;9.198;2023-02-11T09:36:32;102294.81;;;8.92;100.00
11114;BME280;5610;52.154;9.198;2023-02-11T09:39:18;102280.88;;;8.84;100.00
11114;BME280;5610;52.154;9.198;2023-02-11T09:42:19;102286.34;;;9.08;100.00
11114;BME280;5610;52.154;9.198;2023-02-11T09:45:14;102284.34;;;9.17;100.00
11114;BME280;5610;52.154;9.198;2023-02-11T09:48:04;102287.31;;;9.06;100.00
11114;BME280;5610;52.154;9.198;2023-02-11T09:50:58;102297.19;;;9.02;100.00
11114;BME280;5610;52.154;9.198;2023-02-11T09:53:44;102306.28;;;9.25;100.00
11114;BME280;5610;52.154;9.198;2023-02-11T09:56:30;102307.50;;;9.43;100.00
11114;BME280;5610;52.154;9.198;2023-02-11T09:59:15;102311.13;;;9.40;100.00
11114;BME280;5610;52.154;9.198;2023-02-11T10:02:04;102306.66;;;9.70;100.00
11114;BME280;5610;52.154;9.198;2023-02-11T10:05:11;102304.78;;;9.74;100.00
11114;BME280;5610;52.154;9.198;2023-02-11T10:08:05;102304.78;;;9.74;100.00
11114;BME280;5610;52.154;9.198;2023-02-11T10:11:00;102304.81;;;9.72;100.00
11114;BME280;5610;52.154;9.198;2023-02-11T10:13:55;102308.63;;;9.63;100.00
11114;BME280;5610;52.154;9.198;2023-02-11T10:16:51;102308.16;;;9.79;100.00
11114;BME280;5610;52.154;9.198;2023-02-11T10:19:50;102322.38;;;9.78;100.00
11114;BME280;5610;52.154;9.198;2023-02-11T10:22:45;102327.13;;;9.68;100.00
11114;BME280;5610;52.154;9.198;2023-02-11T10:25:34;102336.63;;;9.47;100.00
11114;BME280;5610;52.154;9.198;2023-02-11T10:28:22;102341.31;;;9.69;100.00
11114;BME280;5610;52.154;9.198;2023-02-11T10:31:10;102352.97;;;9.93;100.00
11114;BME280;5610;52.154;9.198;2023-02-11T10:34:01;102348.56;;;9.63;100.00
11114;BME280;5610;52.154;9.198;2023-02-11T10:36:48;102349.88;;;9.78;100.00
11114;BME280;5610;52.154;9.198;2023-02-11T10:39:35;102355.63;;;9.94;100.00
11114;BME280;5610;52.154;9.198;2023-02-11T10:42:23;102350.41;;;9.89;100.00
11114;BME280;5610;52.154;9.198;2023-02-11T10:45:15;102347.94;;;9.83;100.00
11114;BME280;5610;52.154;9.198;2023-02-11T10:48:03;102343.06;;;9.98;100.00
11114;BME280;5610;52.154;9.198;2023-02-11T10:50:50;102338.53;;;10.00;100.00
11114;BME280;5610;52.154;9.198;2023-02-11T10:54:09;102336.34;;;10.40;100.00
11114;BME280;5610;52.154;9.198;2023-02-11T10:56:58;102345.72;;;10.52;100.00
11114;BME280;5610;52.154;9.198;2023-02-11T10:59:44;102337.13;;;10.44;100.00
11114;BME280;5610;52.154;9.198;2023-02-11T11:02:32;102346.22;;;9.82;100.00
11114;BME280;5610;52.154;9.198;2023-02-11T11:05:24;102353.16;;;9.86;100.00
11114;BME280;5610;52.154;9.198;2023-02-11T11:08:12;102360.09;;;9.92;100.00
11114;BME280;5610;52.154;9.198;2023-02-11T11:11:03;102364.75;;;9.85;100.00
11114;BME280;5610;52.154;9.198;2023-02-11T11:13:55;102354.19;;;10.10;100.00
11114;BME280;5610;52.154;9.198;2023-02-11T11:16:51;102359.81;;;10.01;100.00
11114;BME280;5610;52.154;9.198;2023-02-11T11:19:36;102353.78;;;10.24;100.00
11114;BME280;5610;52.154;9.198;2023-02-11T11:22:22;102347.81;;;10.42;100.00
11114;BME280;5610;52.154;9.198;2023-02-11T11:25:20;102349.53;;;10.45;100.00
11114;BME280;5610;52.154;9.198;2023-02-11T11:28:17;102348.00;;;10.38;100.00
11114;BME280;5610;52.154;9.198;2023-02-11T11:31:11;102355.06;;;10.11;100.00
11114;BME280;5610;52.154;9.198;2023-02-11T11:33:59;102351.47;;;10.40;100.00
11114;BME280;5610;52.154;9.198;2023-02-11T11:36:45;102343.63;;;10.07;100.00
11114;BME280;5610;52.154;9.198;2023-02-11T11:39:31;102336.94;;;10.24;100.00
11114;BME280;5610;52.154;9.198;2023-02-11T11:42:27;102334.28;;;10.22;100.00
11114;BME280;5610;52.154;9.198;2023-02-11T11:45:23;102330.72;;;10.23;100.00
11114;BME280;5610;52.154;9.198;2023-02-11T11:48:13;102341.00;;;10.60;100.00
11114;BME280;5610;52.154;9.198;2023-02-11T11:51:05;102337.34;;;10.63;100.00
11114;BME280;5610;52.154;9.198;2023-02-11T11:53:56;102344.47;;;10.62;100.00
11114;BME280;5610;52.154;9.198;2023-02-11T11:56:49;102335.00;;;10.54;100.00
11114;BME280;5610;52.154;9.198;2023-02-11T11:59:35;102339.13;;;10.37;100.00
11114;BME280;5610;52.154;9.198;2023-02-11T12:05:50;102351.22;;;10.48;100.00
11114;BME280;5610;52.154;9.198;2023-02-11T12:08:47;102345.16;;;10.42;100.00
11114;BME280;5610;52.154;9.198;2023-02-11T12:11:48;102341.47;;;9.92;100.00
11114;BME280;5610;52.154;9.198;2023-02-11T12:14:42;102357.09;;;10.03;100.00
11114;BME280;5610;52.154;9.198;2023-02-11T12:17:45;102349.59;;;10.15;100.00
11114;BME280;5610;52.154;9.198;2023-02-11T12:20:48;102355.94;;;10.11;100.00
11114;BME280;5610;52.154;9.198;2023-02-11T12:23:49;102345.91;;;10.19;100.00
11114;BME280;5610;52.154;9.198;2023-02-11T12:26:43;102342.19;;;10.25;100.00
11114;BME280;5610;52.154;9.198;2023-02-11T12:29:36;102350.28;;;9.94;100.00
11114;BME280;5610;52.154;9.198;2023-02-11T12:32:31;102349.69;;;9.84;100.00
11114;BME280;5610;52.154;9.198;2023-02-11T12:35:30;102354.06;;;9.87;100.00
11114;BME280;5610;52.154;9.198;2023-02-11T12:38:30;102351.97;;;9.97;100.00
11114;BME280;5610;52.154;9.198;2023-02-11T12:41:31;102351.03;;;9.70;100.00
11114;BME280;5610;52.154;9.198;2023-02-11T12:44:49;102351.28;;;9.62;100.00
11114;BME280;5610;52.154;9.198;2023-02-11T12:47:46;102357.28;;;9.69;100.00
11114;BME280;5610;52.154;9.198;2023-02-11T12:50:43;102353.00;;;9.63;100.00
11114;BME280;5610;52.154;9.198;2023-02-11T12:53:54;102368.06;;;9.64;100.00
11114;BME280;5610;52.154;9.198;2023-02-11T12:56:51;102358.81;;;9.48;100.00
11114;BME280;5610;52.154;9.198;2023-02-11T12:59:44;102364.69;;;9.59;100.00
11114;BME280;5610;52.154;9.198;2023-02-11T13:02:40;102365.63;;;9.56;100.00
11114;BME280;5610;52.154;9.198;2023-02-11T13:05:28;102366.94;;;9.42;100.00
11114;BME280;5610;52.154;9.198;2023-02-11T13:08:20;102364.88;;;9.51;100.00
11114;BME280;5610;52.154;9.198;2023-02-11T13:11:14;102353.06;;;9.61;100.00
11114;BME280;5610;52.154;9.198;2023-02-11T13:14:05;102354.84;;;9.61;100.00
11114;BME280;5610;52.154;9.198;2023-02-11T13:16:54;102349.75;;;9.53;100.00
11114;BME280;5610;52.154;9.198;2023-02-11T13:19:43;102355.50;;;9.40;100.00
11114;BME280;5610;52.154;9.198;2023-02-11T13:22:32;102355.88;;;9.26;100.00
11114;BME280;5610;52.154;9.198;2023-02-11T13:25:22;102348.91;;;9.51;100.00
11114;BME280;5610;52.154;9.198;2023-02-11T13:28:22;102357.81;;;9.50;100.00
11114;BME280;5610;52.154;9.198;2023-02-11T13:31:10;102349.72;;;9.55;100.00
11114;BME280;5610;52.154;9.198;2023-02-11T13:33:58;102357.00;;;9.78;100.00
11114;BME280;5610;52.154;9.198;2023-02-11T13:36:53;102355.91;;;9.55;100.00
11114;BME280;5610;52.154;9.198;2023-02-11T13:39:38;102353.94;;;9.62;100.00
11114;BME280;5610;52.154;9.198;2023-02-11T13:42:24;102360.00;;;9.67;100.00
11114;BME280;5610;52.154;9.198;2023-02-11T13:45:20;102357.63;;;9.27;100.00
11114;BME280;5610;52.154;9.198;2023-02-11T13:48:22;102376.19;;;9.59;100.00
11114;BME280;5610;52.154;9.198;2023-02-11T13:51:10;102371.34;;;9.72;100.00
11114;BME280;5610;52.154;9.198;2023-02-11T13:53:57;102364.03;;;9.80;100.00
11114;BME280;5610;52.154;9.198;2023-02-11T13:56:42;102363.41;;;9.71;100.00
11114;BME280;5610;52.154;9.198;2023-02-11T13:59:46;102351.97;;;9.69;100.00
11114;BME280;5610;52.154;9.198;2023-02-11T14:02:34;102354.22;;;9.53;100.00
11114;BME280;5610;52.154;9.198;2023-02-11T14:05:37;102357.38;;;9.66;100.00
11114;BME280;5610;52.154;9.198;2023-02-11T14:08:59;102360.03;;;9.94;100.00
11114;BME280;5610;52.154;9.198;2023-02-11T14:11:47;102366.59;;;9.83;100.00
11114;BME280;5610;52.154;9.198;2023-02-11T14:14:58;102366.28;;;9.94;100.00
11114;BME280;5610;52.154;9.198;2023-02-11T14:17:44;102358.88;;;9.74;100.00
11114;BME280;5610;52.154;9.198;2023-02-11T14:20:33;102361.56;;;9.74;100.00
11114;BME280;5610;52.154;9.198;2023-02-11T14:23:22;102348.28;;;9.73;100.00
11114;BME280;5610;52.154;9.198;2023-02-11T14:26:27;102359.75;;;9.75;100.00
11114;BME280;5610;52.154;9.198;2023-02-11T14:29:18;102367.88;;;9.70;100.00
11114;BME280;5610;52.154;9.198;2023-02-11T14:32:16;102364.44;;;9.67;100.00
11114;BME280;5610;52.154;9.198;2023-02-11T14:35:06;102369.97;;;9.60;100.00
11114;BME280;5610;52.154;9.198;2023-02-11T14:37:59;102365.72;;;9.53;100.00
11114;BME280;5610;52.154;9.198;2023-02-11T14:40:51;102363.81;;;9.58;100.00
11114;BME280;5610;52.154;9.198;2023-02-11T14:43:43;102369.06;;;9.89;100.00
11114;BME280;5610;52.154;9.198;2023-02-11T14:46:31;102369.13;;;9.58;100.00
11114;BME280;5610;52.154;9.198;2023-02-11T14:49:23;102375.34;;;9.59;100.00
11114;BME280;5610;52.154;9.198;2023-02-11T14:52:16;102375.50;;;9.82;100.00
11114;BME280;5610;52.154;9.198;2023-02-11T14:55:24;102395.25;;;9.75;100.00
11114;BME280;5610;52.154;9.198;2023-02-11T14:58:15;102397.03;;;9.75;100.00
11114;BME280;5610;52.154;9.198;2023-02-11T15:01:03;102386.88;;;9.58;100.00